Time;durP1;ratioP1;P1;durP2;ratioP2;P2;SDS_P1;SDS_P2;PMS_P1;PMS_P2;Temp;Humidity;BMP_temperature;BMP_pressure;BME280_temperature;BME280_humidity;BME280_pressure;Samples;Min_cycle;Max_cycle;Signal;HPM_P1;HPM_P2
2021/10/10 00:00:04;;;;;;;0.57;0.57;;;7.70;99.90;;;;;;4957319;28;20191;-67
2021/10/10 00:02:30;;;;;;;0.55;0.55;;;7.60;99.90;;;;;;4958679;28;20314;-66
2021/10/10 00:04:55;;;;;;;0.50;0.50;;;7.50;99.90;;;;;;4958555;28;20315;-67
2021/10/10 00:07:21;;;;;;;4.30;3.50;;;7.40;99.90;;;;;;4959420;28;20176;-66
2021/10/10 00:09:46;;;;;;;0.30;0.20;;;7.30;99.90;;;;;;4958956;28;20172;-66
2021/10/10 00:12:12;;;;;;;0.53;0.53;;;7.30;99.90;;;;;;4958185;28;20184;-66
2021/10/10 00:14:38;;;;;;;2.70;1.23;;;7.40;99.90;;;;;;4959677;28;20181;-66
2021/10/10 00:17:03;;;;;;;0.30;0.27;;;7.30;99.90;;;;;;4957778;28;20216;-64
2021/10/10 00:19:29;;;;;;;1.83;1.17;;;7.20;99.90;;;;;;4960710;28;20177;-65
2021/10/10 00:21:54;;;;;;;0.30;0.27;;;7.20;99.90;;;;;;4958953;28;20204;-66
2021/10/10 00:24:20;;;;;;;3.33;2.03;;;7.20;99.90;;;;;;4957452;28;20180;-65
2021/10/10 00:26:46;;;;;;;0.30;0.20;;;7.20;99.90;;;;;;4959687;28;20610;-66
2021/10/10 00:29:11;;;;;;;1.60;1.50;;;7.10;99.90;;;;;;4958103;28;20626;-66
2021/10/10 00:31:37;;;;;;;1.23;0.67;;;7.10;99.90;;;;;;4957428;29;20181;-66
2021/10/10 00:34:02;;;;;;;16.63;6.37;;;7.10;99.90;;;;;;4958134;28;20239;-66
2021/10/10 00:36:30;;;;;;;0.70;0.70;;;7.10;99.90;;;;;;4958092;28;20180;-66
2021/10/10 00:38:56;;;;;;;0.75;0.75;;;7.10;99.90;;;;;;4958744;28;20192;-66
2021/10/10 00:41:21;;;;;;;0.40;0.30;;;7.10;99.90;;;;;;4958238;28;20300;-66
2021/10/10 00:43:47;;;;;;;3.30;3.00;;;7.10;99.90;;;;;;4958001;28;20177;-66
2021/10/10 00:46:14;;;;;;;0.90;0.63;;;7.00;99.90;;;;;;4958145;28;20514;-66
2021/10/10 00:48:39;;;;;;;0.50;0.50;;;7.00;99.90;;;;;;4956752;29;20181;-67
2021/10/10 00:51:05;;;;;;;0.77;0.73;;;7.00;99.90;;;;;;4956850;28;20180;-66
2021/10/10 00:53:35;;;;;;;0.40;0.33;;;7.00;99.90;;;;;;4957967;28;20191;-65
2021/10/10 00:56:03;;;;;;;1.20;1.10;;;7.00;99.90;;;;;;4957008;28;20185;-66
2021/10/10 00:58:29;;;;;;;1.92;1.88;;;6.90;99.90;;;;;;4957714;28;20689;-65
2021/10/10 01:00:55;;;;;;;0.20;0.20;;;6.80;99.90;;;;;;4957578;28;20296;-64
2021/10/10 01:03:22;;;;;;;0.50;0.50;;;6.80;99.90;;;;;;4957634;28;20181;-66
2021/10/10 01:05:48;;;;;;;0.55;0.55;;;6.80;99.90;;;;;;4956467;28;20180;-67
2021/10/10 01:08:18;;;;;;;0.50;0.30;;;6.80;99.90;;;;;;4956319;29;20191;-66
2021/10/10 01:10:45;;;;;;;0.25;0.20;;;6.70;99.90;;;;;;4956126;28;20238;-66
2021/10/10 01:13:13;;;;;;;6.35;5.97;;;6.70;99.90;;;;;;4957752;28;20195;-66
2021/10/10 01:15:39;;;;;;;0.30;0.20;;;6.80;99.90;;;;;;4957424;28;20503;-66
2021/10/10 01:18:04;;;;;;;0.33;0.30;;;6.80;99.90;;;;;;4957251;28;20187;-66
2021/10/10 01:20:43;;;;;;;0.47;0.47;;;6.70;99.90;;;;;;4957239;28;20527;-66
2021/10/10 01:23:09;;;;;;;0.20;0.20;;;6.70;99.90;;;;;;4957308;28;20180;-65
2021/10/10 01:25:34;;;;;;;0.20;0.20;;;6.70;99.90;;;;;;4957762;28;20195;-66
2021/10/10 01:28:00;;;;;;;2.10;0.80;;;6.70;99.90;;;;;;4956978;28;20196;-66
2021/10/10 01:30:25;;;;;;;0.30;0.20;;;6.80;99.90;;;;;;4958064;28;20245;-66
2021/10/10 01:32:55;;;;;;;0.20;0.20;;;6.80;99.90;;;;;;4956951;28;20192;-66
2021/10/10 01:35:21;;;;;;;0.20;0.20;;;6.80;99.90;;;;;;4955862;28;20802;-66
2021/10/10 01:37:47;;;;;;;0.20;0.20;;;6.70;99.90;;;;;;4956786;28;20181;-66
2021/10/10 01:40:13;;;;;;;0.30;0.20;;;6.60;99.90;;;;;;4956793;28;20203;-66
2021/10/10 01:42:38;;;;;;;0.20;0.20;;;6.60;99.90;;;;;;4956824;28;20208;-65
2021/10/10 01:45:13;;;;;;;1.83;1.80;;;6.60;99.90;;;;;;4956744;28;20212;-66
2021/10/10 01:47:38;;;;;;;1.17;0.85;;;6.60;99.90;;;;;;4956922;28;20246;-66
2021/10/10 01:50:04;;;;;;;0.30;0.30;;;6.60;99.90;;;;;;4956690;28;20177;-66
2021/10/10 01:52:30;;;;;;;0.53;0.53;;;6.70;99.90;;;;;;4956658;28;20348;-66
2021/10/10 01:54:55;;;;;;;0.53;0.53;;;6.70;99.90;;;;;;4956607;28;20199;-66
2021/10/10 01:57:21;;;;;;;0.80;0.80;;;6.60;99.90;;;;;;4956630;28;20192;-65
2021/10/10 01:59:46;;;;;;;0.67;0.67;;;6.60;99.90;;;;;;4956114;28;20184;-66
2021/10/10 02:02:12;;;;;;;1.67;1.57;;;6.60;99.90;;;;;;4956368;28;20475;-64
2021/10/10 02:04:38;;;;;;;0.20;0.20;;;6.60;99.90;;;;;;4956495;28;20191;-66
2021/10/10 02:07:03;;;;;;;0.50;0.50;;;6.60;99.90;;;;;;4956555;28;20520;-66
2021/10/10 02:09:29;;;;;;;0.20;0.20;;;6.60;99.90;;;;;;4956159;28;20190;-64
2021/10/10 02:11:54;;;;;;;0.30;0.30;;;6.50;99.90;;;;;;4956442;28;20203;-65
2021/10/10 02:14:20;;;;;;;2.20;2.10;;;6.60;99.90;;;;;;4956363;28;20239;-66
2021/10/10 02:16:45;;;;;;;0.20;0.20;;;6.60;99.90;;;;;;4956380;28;20188;-65
2021/10/10 02:19:11;;;;;;;0.33;0.33;;;6.50;99.90;;;;;;4955089;29;20195;-65
2021/10/10 02:21:36;;;;;;;0.93;0.93;;;6.60;99.90;;;;;;4956276;28;20205;-65
2021/10/10 02:24:02;;;;;;;1.33;1.33;;;6.60;99.90;;;;;;4956167;28;20571;-65
2021/10/10 02:26:27;;;;;;;0.30;0.30;;;6.60;99.90;;;;;;4956115;28;20613;-66
2021/10/10 02:28:53;;;;;;;3.13;1.73;;;6.50;99.90;;;;;;4954711;28;20223;-65
2021/10/10 02:31:20;;;;;;;0.20;0.20;;;6.50;99.90;;;;;;4956440;28;20240;-66
2021/10/10 02:33:45;;;;;;;0.20;0.20;;;6.60;99.90;;;;;;4956324;28;20222;-66
2021/10/10 02:36:11;;;;;;;0.20;0.20;;;6.60;99.90;;;;;;4955950;28;20188;-66
2021/10/10 02:38:36;;;;;;;1.00;0.93;;;6.60;99.90;;;;;;4955855;28;20189;-66
2021/10/10 02:41:02;;;;;;;0.20;0.20;;;6.70;99.90;;;;;;4955864;28;20212;-66
2021/10/10 02:43:27;;;;;;;0.20;0.10;;;6.70;99.90;;;;;;4956000;28;20204;-66
2021/10/10 02:45:53;;;;;;;0.20;0.20;;;6.60;99.90;;;;;;4955951;28;20211;-66
2021/10/10 02:48:19;;;;;;;0.20;0.20;;;6.60;99.90;;;;;;4955671;28;20239;-66
2021/10/10 02:50:44;;;;;;;0.20;0.20;;;6.50;99.90;;;;;;4955867;28;20571;-65
2021/10/10 02:53:10;;;;;;;0.30;0.20;;;6.40;99.90;;;;;;4955965;28;20188;-66
2021/10/10 02:55:35;;;;;;;0.90;0.90;;;6.40;99.90;;;;;;4955792;28;20168;-65
2021/10/10 02:58:01;;;;;;;0.87;0.87;;;6.40;99.90;;;;;;4955673;28;20181;-65
2021/10/10 03:00:27;;;;;;;0.30;0.20;;;6.30;99.90;;;;;;4955649;28;20676;-65
2021/10/10 03:02:52;;;;;;;0.20;0.13;;;6.20;99.90;;;;;;4955826;28;20191;-65
2021/10/10 03:05:18;;;;;;;0.40;0.37;;;6.20;99.90;;;;;;4955761;28;20199;-65
2021/10/10 03:07:43;;;;;;;0.20;0.20;;;6.20;99.90;;;;;;4956097;28;20267;-65
2021/10/10 03:10:09;;;;;;;1.43;1.33;;;6.20;99.90;;;;;;4955754;28;20192;-66
2021/10/10 03:12:38;;;;;;;0.20;0.20;;;6.10;99.90;;;;;;4955643;28;20180;-66
2021/10/10 03:15:04;;;;;;;0.35;0.35;;;6.20;99.90;;;;;;4955567;28;20424;-66
2021/10/10 03:17:29;;;;;;;1.83;1.73;;;6.20;99.90;;;;;;4954523;28;20657;-66
2021/10/10 03:19:55;;;;;;;1.23;1.23;;;6.10;99.90;;;;;;4955271;28;20482;-66
2021/10/10 03:22:21;;;;;;;0.20;0.20;;;6.10;99.90;;;;;;4955403;28;20696;-66
2021/10/10 03:24:46;;;;;;;0.20;0.20;;;6.00;99.90;;;;;;4955955;28;20614;-64
2021/10/10 03:27:12;;;;;;;15.93;2.73;;;6.00;99.90;;;;;;4955535;28;20188;-66
2021/10/10 03:29:37;;;;;;;0.30;0.30;;;6.10;99.90;;;;;;4955181;28;20184;-66
2021/10/10 03:32:03;;;;;;;0.20;0.20;;;6.20;99.90;;;;;;4954323;28;20576;-66
2021/10/10 03:34:28;;;;;;;0.30;0.20;;;6.20;99.90;;;;;;4958442;28;20176;-66
2021/10/10 03:36:54;;;;;;;2.13;2.03;;;6.10;99.90;;;;;;4959101;28;20199;-66
2021/10/10 03:39:19;;;;;;;1.83;1.70;;;6.00;99.90;;;;;;4958819;28;20384;-66
2021/10/10 03:41:45;;;;;;;0.20;0.20;;;6.00;99.90;;;;;;4958962;28;20676;-66
2021/10/10 03:44:11;;;;;;;3.43;1.13;;;6.00;99.90;;;;;;4958864;28;20278;-66
2021/10/10 03:46:36;;;;;;;0.20;0.20;;;5.80;99.90;;;;;;4958911;28;20255;-66
2021/10/10 03:49:02;;;;;;;0.20;0.20;;;5.70;99.90;;;;;;4958586;28;20626;-66
2021/10/10 03:51:27;;;;;;;0.20;0.20;;;5.80;99.90;;;;;;4957798;28;20733;-66
2021/10/10 03:56:37;;;;;;;0.20;0.20;;;5.90;99.90;;;;;;4958692;28;20235;-65
2021/10/10 03:59:02;;;;;;;0.20;0.20;;;5.90;99.90;;;;;;4958440;28;20188;-66
2021/10/10 04:01:28;;;;;;;0.40;0.40;;;5.90;99.90;;;;;;4957631;28;20208;-65
2021/10/10 04:03:54;;;;;;;0.27;0.27;;;5.80;99.90;;;;;;4958564;28;20192;-66
2021/10/10 04:06:19;;;;;;;0.50;0.50;;;5.70;99.90;;;;;;4958526;28;20184;-65
2021/10/10 04:08:45;;;;;;;1.40;1.30;;;5.60;99.90;;;;;;4958208;28;20207;-66
2021/10/10 04:11:11;;;;;;;1.40;1.30;;;5.50;99.90;;;;;;4958580;28;20591;-66
2021/10/10 04:13:37;;;;;;;2.78;2.55;;;5.40;99.90;;;;;;4958351;28;20188;-66
2021/10/10 04:16:04;;;;;;;2.53;2.25;;;5.30;99.90;;;;;;4958317;28;20207;-66
2021/10/10 04:18:29;;;;;;;2.20;2.10;;;5.10;99.90;;;;;;4957957;28;20271;-66
2021/10/10 04:20:56;;;;;;;1.23;1.23;;;5.10;99.90;;;;;;4958162;28;20299;-66
2021/10/10 04:23:22;;;;;;;0.65;0.65;;;5.20;99.90;;;;;;4958099;28;20211;-66
2021/10/10 04:25:47;;;;;;;0.30;0.30;;;5.20;99.90;;;;;;4958070;28;20657;-66
2021/10/10 04:28:13;;;;;;;2.37;2.20;;;5.10;99.90;;;;;;4958013;28;20196;-66
2021/10/10 04:30:38;;;;;;;1.03;1.03;;;5.00;99.90;;;;;;4958145;28;20321;-65
2021/10/10 04:33:04;;;;;;;0.47;0.47;;;5.00;99.90;;;;;;4957142;29;20180;-65
2021/10/10 04:35:29;;;;;;;1.17;1.17;;;5.00;99.90;;;;;;4958100;28;20581;-65
2021/10/10 04:37:55;;;;;;;0.40;0.40;;;5.00;99.90;;;;;;4957828;28;20184;-65
2021/10/10 04:40:20;;;;;;;6.43;6.13;;;5.00;99.90;;;;;;4958035;28;20180;-65
2021/10/10 04:42:46;;;;;;;4.00;1.27;;;5.00;99.90;;;;;;4956803;28;20222;-65
2021/10/10 04:45:12;;;;;;;6.03;2.33;;;4.90;99.90;;;;;;4957454;28;20219;-65
2021/10/10 04:47:37;;;;;;;2.93;1.80;;;5.00;99.90;;;;;;4958608;28;20266;-65
2021/10/10 04:50:03;;;;;;;2.97;2.40;;;4.80;99.90;;;;;;4960972;28;20626;-66
2021/10/10 04:52:30;;;;;;;2.90;2.72;;;4.80;99.90;;;;;;4958960;28;20515;-66
2021/10/10 04:54:56;;;;;;;0.70;0.65;;;4.90;99.90;;;;;;4958014;28;20186;-66
2021/10/10 04:57:21;;;;;;;0.30;0.20;;;4.90;99.90;;;;;;4957885;28;20234;-67
2021/10/10 04:59:50;;;;;;;1.37;1.30;;;5.10;99.90;;;;;;4957481;28;20478;-67
2021/10/10 05:02:20;;;;;;;1.70;1.65;;;5.10;99.90;;;;;;4957606;28;20298;-66
2021/10/10 05:04:46;;;;;;;3.95;3.47;;;5.10;99.90;;;;;;4957544;28;20271;-65
2021/10/10 05:07:12;;;;;;;0.20;0.20;;;5.10;99.90;;;;;;4957617;28;20250;-65
2021/10/10 05:09:37;;;;;;;1.23;0.93;;;5.20;99.90;;;;;;4956389;28;20184;-65
2021/10/10 05:12:03;;;;;;;1.27;0.93;;;5.20;99.90;;;;;;4956427;28;20188;-66
2021/10/10 05:14:29;;;;;;;0.60;0.60;;;5.20;99.90;;;;;;4957406;28;20192;-65
2021/10/10 05:16:55;;;;;;;1.23;0.43;;;5.20;99.90;;;;;;4956681;29;20238;-66
2021/10/10 05:19:21;;;;;;;0.20;0.20;;;5.10;99.90;;;;;;4956963;28;20216;-64
2021/10/10 05:21:46;;;;;;;1.07;0.87;;;5.10;99.90;;;;;;4957058;28;20538;-64
2021/10/10 05:24:12;;;;;;;1.00;0.90;;;5.10;99.90;;;;;;4957082;28;20247;-64
2021/10/10 05:26:37;;;;;;;1.97;1.93;;;5.00;99.90;;;;;;4956030;28;20283;-64
2021/10/10 05:29:03;;;;;;;0.40;0.40;;;5.00;99.90;;;;;;4956828;28;20282;-66
2021/10/10 05:31:28;;;;;;;2.67;1.80;;;5.00;99.90;;;;;;4956925;28;20636;-65
2021/10/10 05:33:54;;;;;;;0.40;0.40;;;4.90;99.90;;;;;;4956895;28;20179;-65
2021/10/10 05:36:19;;;;;;;0.87;0.37;;;4.90;99.90;;;;;;4956807;28;20191;-65
2021/10/10 05:38:45;;;;;;;5.30;1.90;;;4.90;99.90;;;;;;4956595;28;20203;-65
2021/10/10 05:41:10;;;;;;;0.30;0.20;;;4.80;99.90;;;;;;4956783;28;20274;-66
2021/10/10 05:43:36;;;;;;;2.10;1.90;;;4.80;99.90;;;;;;4956792;28;20255;-65
2021/10/10 05:46:02;;;;;;;0.60;0.60;;;4.90;99.90;;;;;;4957013;28;20286;-65
2021/10/10 05:48:27;;;;;;;1.23;1.13;;;4.80;99.90;;;;;;4956668;28;20279;-65
2021/10/10 05:50:53;;;;;;;0.30;0.30;;;4.80;99.90;;;;;;4956708;28;20191;-65
2021/10/10 05:53:18;;;;;;;1.67;1.43;;;4.80;99.90;;;;;;4957184;28;20180;-65
2021/10/10 05:55:44;;;;;;;1.13;1.13;;;4.70;99.90;;;;;;4956434;28;20207;-65
2021/10/10 05:58:16;;;;;;;1.23;1.07;;;4.80;99.90;;;;;;4955679;28;20211;-65
2021/10/10 06:00:42;;;;;;;1.67;0.98;;;4.80;99.90;;;;;;4956424;28;20200;-65
2021/10/10 06:03:08;;;;;;;0.60;0.60;;;4.90;99.90;;;;;;4956391;28;20180;-65
2021/10/10 06:05:34;;;;;;;2.03;1.87;;;5.00;99.90;;;;;;4956158;28;20206;-65
2021/10/10 06:08:00;;;;;;;1.58;1.40;;;5.20;99.90;;;;;;4956088;28;20210;-65
2021/10/10 06:10:26;;;;;;;0.43;0.43;;;5.20;99.90;;;;;;4956389;28;20208;-64
2021/10/10 06:12:51;;;;;;;1.20;1.07;;;5.30;99.90;;;;;;4956192;28;20656;-65
2021/10/10 06:15:18;;;;;;;6.53;3.07;;;5.20;99.90;;;;;;4956113;28;20218;-65
2021/10/10 06:17:44;;;;;;;5.72;5.18;;;5.20;99.90;;;;;;4956164;28;20536;-65
2021/10/10 06:20:10;;;;;;;2.93;1.77;;;5.30;99.90;;;;;;4956145;28;20242;-64
2021/10/10 06:22:36;;;;;;;2.10;0.87;;;5.40;99.90;;;;;;4956251;28;20808;-64
2021/10/10 06:25:03;;;;;;;0.60;0.60;;;5.70;99.90;;;;;;4955953;29;20751;-65
2021/10/10 06:27:29;;;;;;;3.63;1.58;;;5.80;99.90;;;;;;4955654;28;20224;-64
2021/10/10 06:29:55;;;;;;;0.30;0.30;;;5.70;99.90;;;;;;4954718;28;20192;-65
2021/10/10 06:32:20;;;;;;;0.67;0.67;;;5.70;99.90;;;;;;4955994;28;20176;-65
2021/10/10 06:34:46;;;;;;;3.10;1.30;;;5.60;99.90;;;;;;4955936;28;20244;-65
2021/10/10 06:37:11;;;;;;;6.30;1.83;;;5.60;99.90;;;;;;4956064;28;20508;-65
2021/10/10 06:39:37;;;;;;;0.70;0.70;;;5.70;99.90;;;;;;4954735;28;20184;-65
2021/10/10 06:42:05;;;;;;;4.40;3.20;;;5.60;99.90;;;;;;4955618;28;20204;-65
2021/10/10 06:44:31;;;;;;;0.50;0.50;;;5.50;99.90;;;;;;4956031;28;20180;-65
2021/10/10 06:46:57;;;;;;;0.45;0.45;;;5.60;99.90;;;;;;4956312;28;20242;-66
2021/10/10 06:49:22;;;;;;;0.50;0.50;;;5.50;99.90;;;;;;4955685;28;20584;-67
2021/10/10 06:51:48;;;;;;;2.70;2.20;;;5.70;99.90;;;;;;4955644;28;20479;-67
2021/10/10 06:54:13;;;;;;;0.97;0.67;;;5.70;99.90;;;;;;4955522;28;20259;-67
2021/10/10 06:56:39;;;;;;;2.00;1.47;;;5.80;99.90;;;;;;4955551;28;20180;-67
2021/10/10 06:59:06;;;;;;;0.40;0.40;;;6.00;99.90;;;;;;4955161;28;20180;-67
2021/10/10 07:01:34;;;;;;;0.52;0.52;;;6.10;99.90;;;;;;4955592;28;20207;-69
2021/10/10 07:04:00;;;;;;;2.58;2.08;;;6.20;99.90;;;;;;4955784;28;20176;-71
2021/10/10 07:06:26;;;;;;;7.43;4.50;;;6.20;99.90;;;;;;4954326;28;20575;-71
2021/10/10 07:08:52;;;;;;;2.30;1.70;;;6.10;99.90;;;;;;4957423;28;20176;-71
2021/10/10 07:11:19;;;;;;;1.95;1.58;;;6.20;99.90;;;;;;4959381;28;20186;-71
2021/10/10 07:13:44;;;;;;;4.40;2.35;;;6.10;99.90;;;;;;4958339;28;20195;-68
2021/10/10 07:16:10;;;;;;;1.00;0.80;;;6.10;99.90;;;;;;4959887;28;20180;-66
2021/10/10 07:18:47;;;;;;;0.50;0.40;;;6.00;99.90;;;;;;4958298;28;20258;-65
2021/10/10 07:24:08;;;;;;;0.40;0.40;;;6.10;99.90;;;;;;4959298;28;20176;-65
2021/10/10 07:26:34;;;;;;;1.23;1.23;;;6.10;99.90;;;;;;4958889;28;20187;-65
2021/10/10 07:29:00;;;;;;;1.10;1.10;;;6.20;99.90;;;;;;4955738;29;20191;-65
2021/10/10 07:31:25;;;;;;;1.90;1.80;;;6.20;99.90;;;;;;4958714;29;20697;-67
2021/10/10 07:33:51;;;;;;;2.73;2.50;;;6.20;99.90;;;;;;4958805;28;20187;-67
2021/10/10 07:36:17;;;;;;;3.47;2.73;;;6.20;99.90;;;;;;4959186;28;20189;-65
2021/10/10 07:38:42;;;;;;;0.50;0.50;;;6.20;99.90;;;;;;4958473;28;20192;-66
2021/10/10 07:41:08;;;;;;;0.40;0.40;;;6.30;99.90;;;;;;4959017;28;20238;-66
2021/10/10 07:43:34;;;;;;;1.60;1.60;;;6.50;99.90;;;;;;4958294;28;20192;-66
2021/10/10 07:46:09;;;;;;;0.20;0.20;;;6.60;99.90;;;;;;4958178;28;20184;-68
2021/10/10 07:48:34;;;;;;;4.30;3.90;;;6.70;94.20;;;;;;4958161;29;20442;-67
2021/10/10 07:51:00;;;;;;;0.90;0.90;;;6.60;41.80;;;;;;4958270;28;20176;-68
2021/10/10 07:53:26;;;;;;;0.80;0.70;;;6.50;46.30;;;;;;4958222;28;20642;-66
2021/10/10 07:55:51;;;;;;;2.00;1.80;;;6.70;80.20;;;;;;4958280;29;20482;-67
2021/10/10 07:58:17;;;;;;;2.47;1.63;;;6.70;46.70;;;;;;4958256;28;20189;-67
2021/10/10 08:00:43;;;;;;;3.03;2.77;;;6.80;46.60;;;;;;4958506;29;20188;-67
2021/10/10 08:03:08;;;;;;;0.50;0.43;;;7.00;43.00;;;;;;4958275;28;20226;-68
2021/10/10 08:05:42;;;;;;;3.70;1.00;;;7.10;3.50;;;;;;4958183;28;20180;-68
2021/10/10 08:08:11;;;;;;;1.55;1.45;;;7.10;1.00;;;;;;4958289;28;20210;-68
2021/10/10 08:10:41;;;;;;;2.05;1.95;;;7.20;1.00;;;;;;4958546;28;20211;-68
2021/10/10 08:13:07;;;;;;;0.90;0.90;;;7.50;1.00;;;;;;4958229;28;20192;-68
2021/10/10 08:15:33;;;;;;;1.92;1.83;;;7.60;1.00;;;;;;4957638;28;20590;-68
2021/10/10 08:17:59;;;;;;;1.20;1.20;;;7.60;1.00;;;;;;4957656;28;20276;-68
2021/10/10 08:20:24;;;;;;;0.30;0.30;;;7.70;1.00;;;;;;4956967;28;20432;-68
2021/10/10 08:22:50;;;;;;;2.17;1.13;;;7.90;1.00;;;;;;4957911;28;20219;-68
2021/10/10 08:25:16;;;;;;;0.90;0.90;;;8.30;1.00;;;;;;4955742;29;20279;-68
2021/10/10 08:27:45;;;;;;;0.30;0.30;;;8.60;1.00;;;;;;4958239;28;20271;-69
2021/10/10 08:30:13;;;;;;;1.45;1.42;;;8.70;1.00;;;;;;4958378;28;20226;-69
2021/10/10 08:32:39;;;;;;;0.50;0.50;;;8.80;99.90;;;;;;4958476;28;20532;-66
2021/10/10 08:35:06;;;;;;;5.60;5.32;;;8.90;99.90;;;;;;4958129;28;20187;-66
2021/10/10 08:37:32;;;;;;;0.30;0.30;;;8.80;99.90;;;;;;4958171;28;20211;-66
2021/10/10 08:39:57;;;;;;;2.07;1.10;;;9.00;99.90;;;;;;4956892;29;20269;-68
2021/10/10 08:42:29;;;;;;;1.67;1.57;;;9.30;99.90;;;;;;4958409;28;20212;-67
2021/10/10 08:47:43;;;;;;;1.20;1.05;;;9.30;1.00;;;;;;4958174;28;20213;-67
2021/10/10 08:50:21;;;;;;;3.70;1.42;;;9.20;1.00;;;;;;4956799;29;20187;-66
2021/10/10 08:52:51;;;;;;;2.67;1.60;;;9.30;11.40;;;;;;4958013;28;20183;-66
2021/10/10 08:55:17;;;;;;;0.73;0.73;;;9.20;99.90;;;;;;4958248;28;20741;-67
2021/10/10 08:57:43;;;;;;;0.50;0.40;;;9.10;99.90;;;;;;4958359;28;20212;-66
2021/10/10 09:00:17;;;;;;;0.38;0.35;;;9.30;99.90;;;;;;4957926;28;20187;-68
2021/10/10 09:02:46;;;;;;;0.65;0.65;;;9.60;99.90;;;;;;4957964;29;20211;-67
2021/10/10 09:05:13;;;;;;;0.40;0.20;;;10.00;4.30;;;;;;4957528;29;20198;-68
2021/10/10 09:07:38;;;;;;;0.40;0.40;;;10.00;1.00;;;;;;4958217;28;20187;-68
2021/10/10 09:10:31;;;;;;;0.40;0.40;;;10.10;99.90;;;;;;4956640;29;20582;-66
2021/10/10 09:13:16;;;;;;;1.35;1.25;;;10.20;19.00;;;;;;4958428;28;20512;-67
2021/10/10 09:15:48;;;;;;;0.70;0.70;;;10.20;1.00;;;;;;4958632;29;20655;-66
2021/10/10 09:18:15;;;;;;;0.30;0.20;;;10.30;46.40;;;;;;4957944;28;20512;-68
2021/10/10 09:20:42;;;;;;;1.58;1.08;;;10.70;1.00;;;;;;4960397;28;20596;-67
2021/10/10 09:23:28;;;;;;;8.40;7.57;;;10.90;1.00;;;;;;4960464;28;20215;-68
2021/10/10 09:26:06;;;;;;;0.30;0.10;;;10.90;99.90;;;;;;4959480;29;20231;-68
2021/10/10 09:28:33;;;;;;;3.33;2.60;;;10.80;98.80;;;;;;4957797;28;20278;-70
2021/10/10 09:31:01;;;;;;;1.80;1.52;;;11.20;1.00;;;;;;4957121;28;20522;-69
2021/10/10 09:33:46;;;;;;;0.50;0.40;;;11.30;1.00;;;;;;4957538;28;20200;-69
2021/10/10 09:36:24;;;;;;;3.53;2.80;;;11.30;99.90;;;;;;4956900;29;20180;-68
2021/10/10 09:41:30;;;;;;;3.60;2.83;;;11.30;99.90;;;;;;4956315;29;20291;-68
2021/10/10 09:44:09;;;;;;;0.80;0.80;;;11.40;1.00;;;;;;4957070;28;20518;-69
2021/10/10 09:46:37;;;;;;;0.30;0.20;;;11.50;1.00;;;;;;4957282;28;20523;-67
2021/10/10 09:49:18;;;;;;;2.70;2.33;;;11.70;19.10;;;;;;4956181;29;20190;-68
2021/10/10 09:51:44;;;;;;;1.77;1.67;;;11.90;99.90;;;;;;4957083;28;20271;-68
2021/10/10 09:54:09;;;;;;;0.30;0.20;;;12.00;10.30;;;;;;4956478;29;20180;-67
2021/10/10 09:56:35;;;;;;;2.67;2.57;;;12.00;99.90;;;;;;4957623;28;20183;-68
2021/10/10 09:59:01;;;;;;;0.60;0.43;;;11.90;99.90;;;;;;4957926;28;20179;-68
2021/10/10 10:01:30;;;;;;;0.87;0.40;;;12.00;1.00;;;;;;4957003;28;20294;-67
2021/10/10 10:03:57;;;;;;;0.80;0.65;;;12.10;1.00;;;;;;4956596;28;20435;-68
2021/10/10 10:06:24;;;;;;;2.10;1.17;;;12.30;1.00;;;;;;4956916;28;20512;-68
2021/10/10 10:08:50;;;;;;;1.27;0.93;;;12.00;1.00;;;;;;4955075;29;20180;-68
2021/10/10 10:11:20;;;;;;;0.57;0.57;;;11.80;99.90;;;;;;4956912;28;20728;-68
2021/10/10 10:13:46;;;;;;;1.25;0.90;;;11.80;1.00;;;;;;4956956;28;20180;-67
2021/10/10 10:16:15;;;;;;;1.40;1.30;;;11.70;1.00;;;;;;4957260;29;20251;-69
2021/10/10 10:18:41;;;;;;;1.23;1.20;;;11.70;74.70;;;;;;4957056;29;20252;-67
2021/10/10 10:21:08;;;;;;;3.45;3.25;;;12.20;43.20;;;;;;4956238;28;20204;-67
2021/10/10 10:23:35;;;;;;;1.20;1.10;;;12.30;99.90;;;;;;4957666;29;20191;-67
2021/10/10 10:26:01;;;;;;;0.40;0.40;;;12.50;1.00;;;;;;4957813;28;20183;-68
2021/10/10 10:28:28;;;;;;;1.42;1.40;;;12.40;1.00;;;;;;4958181;29;20263;-68
2021/10/10 10:30:55;;;;;;;0.30;0.20;;;12.40;1.00;;;;;;4957394;29;20180;-67
2021/10/10 10:33:20;;;;;;;5.80;1.65;;;12.60;1.00;;;;;;4956844;28;20200;-67
2021/10/10 10:35:48;;;;;;;0.40;0.30;;;12.50;99.90;;;;;;4957783;29;20215;-67
2021/10/10 10:38:14;;;;;;;0.40;0.30;;;12.40;99.90;;;;;;4958622;28;20180;-68
2021/10/10 10:40:40;;;;;;;0.60;0.57;;;12.50;99.90;;;;;;4956902;29;20184;-69
2021/10/10 10:43:07;;;;;;;0.60;0.40;;;12.70;99.90;;;;;;4958069;28;20200;-69
2021/10/10 10:45:36;;;;;;;0.70;0.70;;;13.10;1.00;;;;;;4956766;28;20275;-69
2021/10/10 10:48:07;;;;;;;4.35;2.22;;;13.50;1.00;;;;;;4956986;28;20617;-69
2021/10/10 10:50:44;;;;;;;0.73;0.73;;;13.40;1.00;;;;;;4957951;29;20283;-68
2021/10/10 10:53:13;;;;;;;1.42;1.33;;;13.10;1.00;;;;;;4958000;28;20235;-68
2021/10/10 10:55:44;;;;;;;0.38;0.25;;;12.90;99.90;;;;;;4958975;29;20180;-68
2021/10/10 10:58:15;;;;;;;1.13;0.98;;;13.00;99.90;;;;;;4958166;29;20186;-67
2021/10/10 11:00:46;;;;;;;1.48;0.43;;;13.20;99.90;;;;;;4958927;28;20180;-68
2021/10/10 11:03:11;;;;;;;1.45;1.30;;;13.20;1.00;;;;;;4959236;28;20192;-68
2021/10/10 11:05:55;;;;;;;0.50;0.33;;;13.30;1.00;;;;;;4960019;28;20187;-69
2021/10/10 11:08:27;;;;;;;0.80;0.80;;;13.30;17.20;;;;;;4956305;29;20202;-67
2021/10/10 11:11:18;;;;;;;0.50;0.35;;;13.60;1.00;;;;;;4958382;28;20187;-68
2021/10/10 11:13:55;;;;;;;1.05;0.82;;;13.90;1.00;;;;;;4955537;29;20759;-69
2021/10/10 11:16:25;;;;;;;0.93;0.80;;;14.00;99.90;;;;;;4956826;28;20198;-68
2021/10/10 11:18:54;;;;;;;1.50;1.20;;;13.80;99.90;;;;;;4958049;28;20180;-68
2021/10/10 11:21:23;;;;;;;1.75;1.65;;;14.00;99.90;;;;;;4957263;28;20287;-67
2021/10/10 11:23:52;;;;;;;0.40;0.20;;;14.00;99.90;;;;;;4957159;29;20169;-68
2021/10/10 11:26:19;;;;;;;1.83;1.73;;;14.00;99.90;;;;;;4965355;28;20251;-68
2021/10/10 11:28:46;;;;;;;3.00;2.35;;;14.10;99.90;;;;;;4962649;29;20192;-69
2021/10/10 11:31:20;;;;;;;5.00;3.33;;;14.00;99.90;;;;;;4956892;28;20516;-68
2021/10/10 11:33:56;;;;;;;4.72;3.10;;;13.90;99.90;;;;;;4955243;29;20184;-69
2021/10/10 11:36:39;;;;;;;0.65;0.45;;;13.90;99.90;;;;;;4955694;29;20190;-69
2021/10/10 11:39:23;;;;;;;0.40;0.30;;;13.90;99.90;;;;;;4955576;28;20188;-68
2021/10/10 11:41:55;;;;;;;2.28;2.08;;;14.10;99.90;;;;;;4956135;28;20220;-68
2021/10/10 11:44:35;;;;;;;0.40;0.30;;;14.10;99.90;;;;;;4955537;28;20180;-68
2021/10/10 11:47:04;;;;;;;1.63;1.52;;;14.10;99.90;;;;;;4955935;28;20212;-68
2021/10/10 11:49:38;;;;;;;0.30;0.20;;;14.10;99.90;;;;;;4955969;28;20235;-69
2021/10/10 11:52:06;;;;;;;3.05;2.85;;;14.20;99.90;;;;;;4956446;29;20218;-69
2021/10/10 11:54:43;;;;;;;0.50;0.47;;;14.10;99.90;;;;;;4957533;28;20187;-69
2021/10/10 11:57:13;;;;;;;0.40;0.20;;;14.30;99.90;;;;;;4959747;28;20188;-69
2021/10/10 11:59:51;;;;;;;0.40;0.20;;;14.20;99.90;;;;;;4960196;29;20239;-68
2021/10/10 12:02:17;;;;;;;0.73;0.57;;;14.10;99.90;;;;;;4959079;29;20688;-69
2021/10/10 12:04:43;;;;;;;0.50;0.50;;;14.00;99.90;;;;;;4958548;29;20192;-70
2021/10/10 12:07:09;;;;;;;2.88;1.58;;;14.20;99.90;;;;;;4960544;28;20427;-67
2021/10/10 12:09:47;;;;;;;0.73;0.73;;;14.20;99.90;;;;;;4960354;28;20195;-70
2021/10/10 12:12:14;;;;;;;1.30;0.95;;;14.00;99.90;;;;;;4960305;28;20641;-68
2021/10/10 12:14:48;;;;;;;1.73;1.58;;;14.10;99.90;;;;;;4959238;29;20180;-68
2021/10/10 12:17:44;;;;;;;1.50;1.50;;;14.00;99.90;;;;;;4959875;28;20207;-69
2021/10/10 12:20:16;;;;;;;0.40;0.20;;;14.00;99.90;;;;;;4959279;28;20191;-68
2021/10/10 12:22:55;;;;;;;1.35;1.25;;;14.00;99.90;;;;;;4957993;28;20216;-68
2021/10/10 12:25:28;;;;;;;1.58;1.48;;;13.80;99.90;;;;;;4959521;28;20267;-69
2021/10/10 12:28:18;;;;;;;0.73;0.73;;;13.70;1.00;;;;;;4959177;28;20625;-69
2021/10/10 12:30:54;;;;;;;0.30;0.20;;;13.70;1.00;;;;;;4958628;28;20682;-69
2021/10/10 12:33:22;;;;;;;0.30;0.10;;;13.80;99.90;;;;;;4958770;28;20629;-68
2021/10/10 12:36:08;;;;;;;0.73;0.73;;;14.00;1.00;;;;;;4957204;29;20180;-69
2021/10/10 12:38:40;;;;;;;4.10;2.25;;;14.10;99.90;;;;;;4957148;29;20187;-68
2021/10/10 12:41:20;;;;;;;1.80;1.70;;;14.10;99.90;;;;;;4958024;28;20239;-69
2021/10/10 12:43:52;;;;;;;2.00;1.30;;;14.20;99.90;;;;;;4958147;29;20227;-69
2021/10/10 12:46:19;;;;;;;1.27;1.17;;;14.00;99.90;;;;;;4958356;29;20183;-69
2021/10/10 12:49:07;;;;;;;3.08;2.15;;;14.00;99.90;;;;;;4962352;28;20211;-70
2021/10/10 12:51:34;;;;;;;0.30;0.20;;;14.10;99.90;;;;;;4962651;29;20188;-68
2021/10/10 12:54:20;;;;;;;0.30;0.20;;;14.20;99.90;;;;;;4961866;28;20231;-68
2021/10/10 12:57:06;;;;;;;1.75;1.08;;;14.20;99.90;;;;;;4957285;29;20564;-70
2021/10/10 12:59:33;;;;;;;0.30;0.20;;;14.20;99.90;;;;;;4957772;28;20188;-69
2021/10/10 13:01:59;;;;;;;1.73;1.17;;;14.20;99.90;;;;;;4956934;28;20295;-68
2021/10/10 13:04:26;;;;;;;3.22;3.13;;;14.10;99.90;;;;;;4941292;29;20618;-68
2021/10/10 13:06:52;;;;;;;1.67;0.35;;;14.10;99.90;;;;;;4957411;28;20259;-68
2021/10/10 13:09:21;;;;;;;2.05;1.90;;;14.20;99.90;;;;;;4957259;28;20227;-69